Time;durP1;ratioP1;P1;durP2;ratioP2;P2;SDS_P1;SDS_P2;PMS_P1;PMS_P2;Temp;Humidity;BMP_temperature;BMP_pressure;BME280_temperature;BME280_humidity;BME280_pressure;Samples;Min_cycle;Max_cycle;Signal;HPM_P1;HPM_P2
2022/09/24 00:00:43;;;;;;;37.22;34.42;;;;;;;17.19;59.16;101189.84;5022627;28;20029;-80
2022/09/24 00:03:08;;;;;;;37.20;34.47;;;;;;;17.18;58.83;101190.94;5031382;28;20120;-79
2022/09/24 00:05:38;;;;;;;38.00;35.30;;;;;;;17.18;59.29;101190.94;5036679;28;20198;-80
2022/09/24 00:08:07;;;;;;;38.28;35.67;;;;;;;17.17;58.78;101185.75;5032455;28;20112;-79
2022/09/24 00:10:38;;;;;;;37.58;35.03;;;;;;;17.16;58.97;101179.50;5025770;28;20063;-80
2022/09/24 00:13:04;;;;;;;37.72;35.15;;;;;;;17.15;59.00;101180.56;5034939;28;20057;-79
2022/09/24 00:15:30;;;;;;;38.03;35.33;;;;;;;17.15;59.16;101177.84;5036516;28;20367;-79
2022/09/24 00:17:58;;;;;;;37.28;34.67;;;;;;;17.14;58.99;101173.50;5029265;28;20037;-79
2022/09/24 00:20:23;;;;;;;37.45;34.67;;;;;;;17.13;59.08;101171.84;5031286;28;20038;-79
2022/09/24 00:22:48;;;;;;;37.90;35.47;;;;;;;17.12;59.25;101170.22;5027176;28;20045;-79
2022/09/24 00:27:58;;;;;;;37.65;35.03;;;;;;;17.11;58.67;101160.41;5036354;28;20052;-79
2022/09/24 00:30:24;;;;;;;40.17;37.17;;;;;;;17.11;58.87;101163.13;5029395;28;20033;-79
2022/09/24 00:32:49;;;;;;;38.97;36.28;;;;;;;17.10;59.19;101161.47;5028558;28;20041;-78
2022/09/24 00:35:15;;;;;;;38.05;35.35;;;;;;;17.09;58.89;101160.66;5032847;28;20397;-79
2022/09/24 00:37:40;;;;;;;37.30;34.72;;;;;;;17.08;58.59;101160.94;5047164;28;20052;-79
2022/09/24 00:40:06;;;;;;;37.17;34.55;;;;;;;17.07;59.13;101160.13;5058626;28;20491;-79
2022/09/24 00:42:32;;;;;;;37.47;34.92;;;;;;;17.07;58.76;101156.56;5012054;28;20048;-79
2022/09/24 00:44:57;;;;;;;37.10;34.28;;;;;;;17.06;59.09;101146.75;5033782;28;20033;-79
2022/09/24 00:47:39;;;;;;;38.50;35.78;;;;;;;17.06;59.09;101153.03;5046852;28;20374;-80
2022/09/24 00:50:14;;;;;;;37.20;34.78;;;;;;;17.04;58.81;101155.22;5029151;28;20076;-79
2022/09/24 00:52:51;;;;;;;37.08;34.53;;;;;;;17.03;59.03;101150.88;5035583;28;20038;-80
2022/09/24 00:55:19;;;;;;;35.55;33.03;;;;;;;17.02;58.96;101149.22;5040780;28;20042;-79
2022/09/24 00:57:48;;;;;;;36.55;33.92;;;;;;;17.03;58.86;101152.75;5058673;28;20469;-80
2022/09/24 01:00:14;;;;;;;38.42;35.75;;;;;;;17.00;58.71;101140.47;5040889;28;20508;-79
2022/09/24 01:02:45;;;;;;;40.25;37.35;;;;;;;17.01;59.11;101144.00;5031508;28;20036;-78
2022/09/24 01:05:11;;;;;;;39.00;36.35;;;;;;;17.00;58.72;101142.41;5036437;28;20030;-79
2022/09/24 01:07:38;;;;;;;38.78;36.05;;;;;;;16.98;58.94;101129.00;5030408;28;20031;-79
2022/09/24 01:10:04;;;;;;;38.10;35.47;;;;;;;16.98;59.14;101141.84;5046065;28;20053;-80
2022/09/24 01:12:57;;;;;;;38.50;35.60;;;;;;;16.97;59.22;101138.31;5036836;28;20046;-81
2022/09/24 01:15:34;;;;;;;36.55;33.92;;;;;;;16.96;59.16;101128.50;5058800;28;20531;-82
2022/09/24 01:18:05;;;;;;;37.22;34.72;;;;;;;16.96;59.28;101135.84;5037177;28;20029;-80
2022/09/24 01:21:05;;;;;;;38.33;35.58;;;;;;;16.95;58.89;101126.84;5044208;28;20121;-80
2022/09/24 01:23:42;;;;;;;36.75;34.00;;;;;;;16.94;59.16;101116.22;5019963;28;20078;-80
2022/09/24 01:26:07;;;;;;;36.78;34.50;;;;;;;16.93;59.06;101117.28;5027299;28;20042;-79
2022/09/24 01:29:04;;;;;;;36.72;34.10;;;;;;;16.92;59.27;101127.41;5029765;28;20082;-80
2022/09/24 01:31:36;;;;;;;36.38;33.92;;;;;;;16.90;58.97;101120.59;5015652;28;20467;-78
2022/09/24 01:34:04;;;;;;;37.55;34.97;;;;;;;16.90;58.62;101117.84;5040750;28;20385;-79
2022/09/24 01:36:34;;;;;;;36.75;34.10;;;;;;;16.89;59.01;101114.31;5058170;28;20045;-80
2022/09/24 01:39:01;;;;;;;35.13;32.85;;;;;;;16.89;58.87;101105.31;5013516;28;20133;-81
2022/09/24 01:41:27;;;;;;;39.05;36.33;;;;;;;16.87;58.79;101106.41;5017955;28;20065;-80
2022/09/24 01:43:53;;;;;;;37.50;34.83;;;;;;;16.87;59.13;101108.31;5044202;28;20068;-78
2022/09/24 01:46:20;;;;;;;37.83;34.95;;;;;;;16.86;58.85;101104.78;5027114;28;20044;-80
2022/09/24 01:48:46;;;;;;;37.20;34.67;;;;;;;16.87;58.66;101103.66;5033631;28;20046;-80
2022/09/24 01:51:19;;;;;;;36.20;33.70;;;;;;;16.86;59.11;101101.22;5028753;28;20049;-80
2022/09/24 01:53:51;;;;;;;37.13;34.33;;;;;;;16.86;58.96;101095.78;5037824;28;20520;-79
2022/09/24 01:56:24;;;;;;;36.40;33.80;;;;;;;16.85;59.09;101099.56;5058327;28;20042;-78
2022/09/24 01:59:08;;;;;;;37.33;34.42;;;;;;;16.85;59.11;101100.38;5025317;28;20466;-78
2022/09/24 02:01:46;;;;;;;37.17;34.47;;;;;;;16.84;58.80;101095.22;5026780;28;20049;-79
2022/09/24 02:04:19;;;;;;;35.72;33.03;;;;;;;16.83;58.76;101088.13;5038048;28;20033;-80
2022/09/24 02:06:59;;;;;;;37.20;34.58;;;;;;;16.83;58.91;101090.84;5020270;28;20034;-80
2022/09/24 02:09:31;;;;;;;36.28;33.60;;;;;;;16.82;59.06;101086.50;5021218;28;20037;-80
2022/09/24 02:12:28;;;;;;;36.67;33.85;;;;;;;16.81;58.98;101088.41;5033994;28;20369;-78
2022/09/24 02:15:47;;;;;;;36.70;34.10;;;;;;;16.80;59.25;101081.31;5055837;28;20065;-80
2022/09/24 02:18:17;;;;;;;35.72;33.13;;;;;;;16.78;58.78;101085.41;4995351;28;20124;-80
2022/09/24 02:20:43;;;;;;;36.90;34.25;;;;;;;16.78;58.71;101082.66;5023042;28;20033;-80
2022/09/24 02:23:10;;;;;;;35.72;33.28;;;;;;;16.77;59.07;101079.09;5029556;28;20051;-78
2022/09/24 02:25:39;;;;;;;37.30;34.40;;;;;;;16.77;59.24;101075.56;5010509;28;20034;-80
2022/09/24 02:28:05;;;;;;;36.88;34.20;;;;;;;16.76;59.14;101077.47;5044053;28;20029;-79
2022/09/24 02:30:34;;;;;;;37.38;34.63;;;;;;;16.76;58.83;101074.75;5026013;28;20125;-80
2022/09/24 02:33:00;;;;;;;36.38;33.65;;;;;;;16.75;59.12;101073.09;5034921;28;20029;-79
2022/09/24 02:35:26;;;;;;;37.65;34.72;;;;;;;16.76;59.04;101069.28;5034272;28;20514;-79
2022/09/24 02:37:51;;;;;;;39.05;36.22;;;;;;;16.75;59.19;101066.84;5059827;28;20052;-78
2022/09/24 02:40:17;;;;;;;36.63;34.05;;;;;;;16.74;59.12;101076.94;5017302;28;20163;-78
2022/09/24 02:42:42;;;;;;;37.03;34.22;;;;;;;16.73;59.13;101075.31;5049699;28;20037;-79
2022/09/24 02:45:09;;;;;;;35.15;32.45;;;;;;;16.72;59.33;101068.19;5016610;28;20114;-79
2022/09/24 02:47:35;;;;;;;36.65;33.85;;;;;;;16.72;59.25;101057.28;5029027;28;20034;-78
2022/09/24 02:50:01;;;;;;;35.67;33.28;;;;;;;16.71;59.32;101058.41;5049281;28;20092;-81
2022/09/24 02:52:26;;;;;;;35.45;32.90;;;;;;;16.71;59.11;101063.84;5041874;28;20120;-79
2022/09/24 02:54:52;;;;;;;35.58;32.97;;;;;;;16.70;59.14;101059.47;5032842;28;20033;-79
2022/09/24 02:57:18;;;;;;;35.40;32.90;;;;;;;16.70;59.00;101055.94;5030485;28;20413;-78
2022/09/24 02:59:44;;;;;;;34.85;32.35;;;;;;;16.70;59.27;101055.94;5025915;28;20041;-80
2022/09/24 03:02:10;;;;;;;35.10;32.17;;;;;;;16.69;59.32;101055.13;5059989;28;20038;-79
2022/09/24 03:04:35;;;;;;;38.05;35.33;;;;;;;16.66;59.12;101050.22;5032422;28;20041;-78
2022/09/24 03:07:01;;;;;;;34.97;32.63;;;;;;;16.66;59.37;101051.03;5032969;28;20191;-78
2022/09/24 03:09:27;;;;;;;34.47;31.95;;;;;;;16.65;59.11;101052.09;5034188;28;20040;-77
2022/09/24 03:11:52;;;;;;;36.65;34.13;;;;;;;16.66;59.51;101048.31;5015221;28;20421;-77
2022/09/24 03:14:18;;;;;;;33.03;31.08;;;;;;;16.65;59.21;101049.38;5019783;28;20057;-77
2022/09/24 03:16:43;;;;;;;37.90;35.13;;;;;;;16.65;59.38;101043.13;5014399;28;20120;-77
2022/09/24 03:19:08;;;;;;;36.45;34.00;;;;;;;16.64;59.19;101038.78;5021919;28;20033;-78
2022/09/24 03:21:34;;;;;;;35.83;33.25;;;;;;;16.63;59.48;101048.88;5048761;28;20029;-79
2022/09/24 03:23:59;;;;;;;34.35;32.08;;;;;;;16.63;59.23;101045.28;5015034;28;20474;-78
2022/09/24 03:26:25;;;;;;;35.58;33.17;;;;;;;16.63;59.42;101037.97;5030934;28;20040;-77
2022/09/24 03:28:51;;;;;;;36.15;33.60;;;;;;;16.62;59.47;101032.75;5040943;28;20463;-77
2022/09/24 03:31:17;;;;;;;36.38;33.72;;;;;;;16.61;59.63;101026.50;5014004;28;20095;-77
2022/09/24 03:33:48;;;;;;;37.22;34.50;;;;;;;16.62;59.28;101019.13;5039446;28;20047;-79
2022/09/24 03:36:15;;;;;;;35.45;33.03;;;;;;;16.60;59.56;101021.31;5032667;28;20056;-76
2022/09/24 03:38:42;;;;;;;36.65;34.15;;;;;;;16.60;59.54;101029.50;5031085;28;20034;-75
2022/09/24 03:41:10;;;;;;;36.38;33.80;;;;;;;16.58;59.31;101026.22;5051977;28;20037;-76
2022/09/24 03:43:36;;;;;;;35.50;32.97;;;;;;;16.58;59.69;101018.88;5029111;28;20409;-83
2022/09/24 03:46:02;;;;;;;35.05;32.63;;;;;;;16.57;59.31;101025.41;5045711;28;20668;-77
2022/09/24 03:48:29;;;;;;;36.03;33.63;;;;;;;16.57;59.42;101024.59;5056013;28;20124;-76
2022/09/24 03:50:55;;;;;;;34.17;31.77;;;;;;;16.57;59.16;101021.88;5034382;28;20034;-76
2022/09/24 03:53:21;;;;;;;34.40;31.80;;;;;;;16.57;59.53;101021.88;5050823;28;20061;-77
2022/09/24 03:55:52;;;;;;;37.63;34.95;;;;;;;16.56;59.61;101020.25;5025584;28;20088;-77
2022/09/24 03:58:17;;;;;;;35.15;32.60;;;;;;;16.56;59.45;101017.53;5035787;28;20106;-77
2022/09/24 04:00:43;;;;;;;34.00;31.65;;;;;;;16.55;59.43;101019.41;5024913;28;20389;-76
2022/09/24 04:03:09;;;;;;;34.88;32.60;;;;;;;16.54;59.76;101014.25;5019142;28;20035;-78
2022/09/24 04:05:34;;;;;;;36.40;33.88;;;;;;;16.54;59.63;101014.25;5031725;28;20036;-77
2022/09/24 04:08:01;;;;;;;37.50;34.50;;;;;;;16.52;59.70;101014.50;5019873;28;20041;-78
2022/09/24 04:10:27;;;;;;;34.22;31.92;;;;;;;16.53;59.73;101013.44;5038301;28;20026;-77
2022/09/24 04:12:54;;;;;;;32.85;30.88;;;;;;;16.52;59.77;101009.06;5032730;28;20125;-76
2022/09/24 04:15:22;;;;;;;33.88;31.67;;;;;;;16.52;59.59;101011.78;5015509;28;20411;-75
2022/09/24 04:17:58;;;;;;;35.78;33.38;;;;;;;16.51;59.56;101014.81;5059308;28;20038;-81
2022/09/24 04:20:26;;;;;;;33.28;31.17;;;;;;;16.51;59.81;101006.63;5045989;28;20038;-78
2022/09/24 04:22:54;;;;;;;34.67;31.65;;;;;;;16.50;59.54;101003.06;5028936;28;20482;-77
2022/09/24 04:25:21;;;;;;;32.67;30.27;;;;;;;16.50;59.61;101013.16;5023303;28;20105;-78
2022/09/24 04:27:55;;;;;;;34.92;32.53;;;;;;;16.49;59.80;101000.63;5031586;28;20034;-78
2022/09/24 04:30:20;;;;;;;33.40;30.88;;;;;;;16.48;59.60;100996.25;5030474;28;20478;-77
2022/09/24 04:32:46;;;;;;;35.72;32.83;;;;;;;16.48;59.66;101001.69;5033022;28;20029;-77
2022/09/24 04:35:11;;;;;;;34.47;31.98;;;;;;;16.48;59.70;101002.53;5013495;28;20106;-76
2022/09/24 04:37:37;;;;;;;35.33;32.83;;;;;;;16.47;59.79;101005.53;5028643;28;20045;-77
2022/09/24 04:40:11;;;;;;;34.58;32.08;;;;;;;16.46;59.71;100999.25;5029814;28;20465;-77
2022/09/24 04:42:39;;;;;;;32.42;30.20;;;;;;;16.46;59.52;100999.25;5032424;28;20037;-80
2022/09/24 04:45:09;;;;;;;33.08;30.98;;;;;;;16.45;59.59;101000.34;5024144;28;20053;-78
2022/09/24 04:47:35;;;;;;;32.92;30.73;;;;;;;16.44;59.84;101002.25;5005445;28;20037;-78
2022/09/24 04:50:03;;;;;;;34.15;31.83;;;;;;;16.44;59.81;101001.44;5028490;28;20116;-76
2022/09/24 04:52:32;;;;;;;32.67;30.58;;;;;;;16.43;59.59;101005.28;5064003;28;20025;-79
2022/09/24 04:54:59;;;;;;;33.47;31.17;;;;;;;16.44;59.65;101006.91;5056155;28;20045;-79
2022/09/24 04:57:25;;;;;;;35.97;33.47;;;;;;;16.42;59.66;101009.88;5020651;28;20056;-76
2022/09/24 04:59:51;;;;;;;36.17;33.58;;;;;;;16.42;59.81;101006.34;5022412;28;20030;-78
2022/09/24 05:02:17;;;;;;;35.95;33.38;;;;;;;16.40;60.09;101009.38;5017099;28;20436;-76
2022/09/24 05:04:42;;;;;;;32.95;30.90;;;;;;;16.40;59.72;101003.91;5027783;28;20080;-79
2022/09/24 05:07:08;;;;;;;35.05;32.65;;;;;;;16.40;59.81;101005.81;5029343;28;20033;-76
2022/09/24 05:09:34;;;;;;;34.22;31.85;;;;;;;16.39;59.89;101007.72;5024829;28;20054;-78
2022/09/24 05:12:00;;;;;;;35.47;33.17;;;;;;;16.38;59.92;101006.09;5032202;28;20109;-77
2022/09/24 05:14:25;;;;;;;34.15;31.77;;;;;;;16.38;59.63;101005.28;5030673;28;20033;-76
2022/09/24 05:16:53;;;;;;;34.85;32.50;;;;;;;16.38;59.88;101002.56;5042830;28;20488;-76
2022/09/24 05:19:19;;;;;;;34.15;31.80;;;;;;;16.36;59.79;101005.56;5030519;28;20116;-75
2022/09/24 05:21:45;;;;;;;35.08;31.98;;;;;;;16.36;59.62;101002.81;5028737;28;20160;-78
2022/09/24 05:24:11;;;;;;;36.17;33.50;;;;;;;16.36;59.77;101004.75;5059726;28;20143;-76
2022/09/24 05:29:20;;;;;;;34.67;32.38;;;;;;;16.35;60.18;101003.91;5031604;28;20543;-77
2022/09/24 05:31:46;;;;;;;33.53;31.42;;;;;;;16.34;59.88;101005.00;5056445;28;20033;-79
2022/09/24 05:34:13;;;;;;;34.03;31.70;;;;;;;16.33;60.29;101010.72;5043411;28;20071;-77
2022/09/24 05:36:39;;;;;;;34.20;31.95;;;;;;;16.33;59.95;101008.84;5026944;28;20029;-76
2022/09/24 05:39:05;;;;;;;33.45;31.15;;;;;;;16.32;60.03;101012.63;5043300;28;20097;-80
2022/09/24 05:41:31;;;;;;;34.58;32.25;;;;;;;16.32;60.15;101011.81;5018871;28;20025;-77
2022/09/24 05:43:58;;;;;;;34.90;31.90;;;;;;;16.31;60.20;101012.91;5030573;28;20065;-77
2022/09/24 05:46:24;;;;;;;33.63;31.45;;;;;;;16.31;59.77;101015.66;5023430;28;20041;-76
2022/09/24 05:48:49;;;;;;;34.58;32.25;;;;;;;16.30;60.34;101019.44;5026724;28;20033;-84
2022/09/24 05:51:15;;;;;;;34.10;31.67;;;;;;;16.29;60.11;101024.09;5027680;28;20029;-77
2022/09/24 05:53:40;;;;;;;35.70;33.05;;;;;;;16.29;60.27;101023.28;5046311;28;20038;-76
2022/09/24 05:56:06;;;;;;;35.65;33.28;;;;;;;16.29;60.17;101031.47;5013897;28;20037;-78
2022/09/24 05:58:32;;;;;;;34.88;32.47;;;;;;;16.28;60.28;101027.91;5030320;28;20069;-77
2022/09/24 06:00:59;;;;;;;34.10;31.90;;;;;;;16.28;60.06;101032.53;5045567;28;20033;-77
2022/09/24 06:03:25;;;;;;;33.92;31.20;;;;;;;16.27;60.06;101031.72;5026600;28;20037;-79
2022/09/24 06:05:53;;;;;;;34.05;31.75;;;;;;;16.27;60.42;101037.16;5030418;28;20029;-82
2022/09/24 06:08:19;;;;;;;33.80;31.48;;;;;;;16.25;60.27;101031.16;5035694;28;20030;-76
2022/09/24 06:10:46;;;;;;;33.15;30.90;;;;;;;16.26;60.19;101032.81;5046209;28;20436;-76
2022/09/24 06:13:13;;;;;;;35.03;32.45;;;;;;;16.26;60.34;101032.81;5041993;28;20203;-78
2022/09/24 06:15:41;;;;;;;33.08;30.77;;;;;;;16.26;60.25;101035.53;5036034;28;20048;-78
2022/09/24 06:18:07;;;;;;;;;;;;;;;16.25;60.00;101031.16;5047294;28;20112;-78
2022/09/24 06:20:33;;;;;;;33.03;30.77;;;;;;;16.22;60.10;101032.53;5033693;28;20302;-79
2022/09/24 06:22:58;;;;;;;33.95;31.02;;;;;;;16.22;60.11;101037.16;5013394;28;20046;-78
2022/09/24 06:25:25;;;;;;;32.78;30.30;;;;;;;16.22;60.40;101037.16;5018965;28;20048;-78
2022/09/24 06:28:01;;;;;;;33.28;30.98;;;;;;;16.21;60.32;101038.28;5046657;28;20028;-77
2022/09/24 06:30:37;;;;;;;33.88;31.60;;;;;;;16.21;60.39;101032.81;5051967;28;20076;-76
2022/09/24 06:33:08;;;;;;;34.95;32.58;;;;;;;16.20;60.51;101033.91;5040584;28;20071;-78
2022/09/24 06:35:43;;;;;;;33.95;31.77;;;;;;;16.20;60.28;101047.53;5034150;28;20049;-78
2022/09/24 06:38:15;;;;;;;39.65;35.97;;;;;;;16.20;60.35;101048.38;5034524;28;20033;-77
2022/09/24 06:40:47;;;;;;;34.33;31.70;;;;;;;16.19;60.33;101045.91;5035258;28;20124;-80
2022/09/24 06:43:14;;;;;;;37.80;34.47;;;;;;;16.19;60.29;101052.16;5015072;28;20037;-79
2022/09/24 06:45:45;;;;;;;35.88;33.00;;;;;;;16.18;60.29;101052.47;5039769;28;20469;-77
2022/09/24 06:48:13;;;;;;;36.40;33.78;;;;;;;16.18;60.51;101058.72;5048182;28;20432;-76
2022/09/24 06:50:44;;;;;;;34.70;32.22;;;;;;;16.19;60.54;101056.81;5032952;28;20025;-78
2022/09/24 06:53:10;;;;;;;35.17;32.55;;;;;;;16.18;60.56;101055.19;5048143;28;20437;-77
2022/09/24 06:55:37;;;;;;;34.35;31.80;;;;;;;16.17;60.44;101051.63;5029940;28;20474;-79
2022/09/24 06:58:14;;;;;;;34.80;32.30;;;;;;;16.17;60.65;101054.34;5039696;28;20501;-78
2022/09/24 07:00:41;;;;;;;35.42;32.83;;;;;;;16.16;60.93;101058.16;5047207;28;20040;-78
2022/09/24 07:03:14;;;;;;;33.65;31.30;;;;;;;16.16;60.64;101060.91;5032792;28;20106;-78
2022/09/24 07:05:41;;;;;;;34.97;31.83;;;;;;;16.16;60.93;101060.91;5033928;28;20385;-78
2022/09/24 07:08:07;;;;;;;36.10;33.40;;;;;;;16.15;60.63;101053.81;5031390;28;20029;-78
2022/09/24 07:10:32;;;;;;;33.85;31.23;;;;;;;16.15;60.86;101056.53;5025919;28;20362;-77
2022/09/24 07:12:58;;;;;;;34.53;32.20;;;;;;;16.15;60.76;101063.88;5048809;28;20397;-82
2022/09/24 07:15:23;;;;;;;33.90;31.65;;;;;;;16.15;60.76;101069.31;5029993;28;20060;-77
2022/09/24 07:17:54;;;;;;;35.30;32.53;;;;;;;16.14;60.92;101064.97;5052882;28;20046;-76
2022/09/24 07:20:19;;;;;;;32.53;30.33;;;;;;;16.13;61.02;101072.34;5025671;28;20033;-77
2022/09/24 07:22:45;;;;;;;33.95;31.50;;;;;;;16.13;60.68;101072.34;5032297;28;20030;-81
2022/09/24 07:25:11;;;;;;;36.85;34.05;;;;;;;16.13;60.83;101068.81;5022851;28;20171;-78
2022/09/24 07:27:38;;;;;;;35.83;33.10;;;;;;;16.13;60.74;101068.81;5034838;28;20029;-77
2022/09/24 07:30:09;;;;;;;35.45;32.63;;;;;;;16.11;60.68;101071.78;5047004;28;20041;-77
2022/09/24 07:32:34;;;;;;;34.60;32.20;;;;;;;16.12;60.66;101069.88;5013743;28;20037;-78
2022/09/24 07:35:00;;;;;;;35.10;32.65;;;;;;;16.11;60.68;101074.50;5034186;28;20073;-77
2022/09/24 07:37:26;;;;;;;34.40;31.88;;;;;;;16.11;61.12;101070.97;5036521;28;20406;-76
2022/09/24 07:39:51;;;;;;;33.88;31.40;;;;;;;16.11;61.00;101073.72;5020118;28;20794;-78
2022/09/24 07:42:17;;;;;;;35.78;33.10;;;;;;;16.11;61.08;101081.88;5023839;28;20033;-78
2022/09/24 07:44:42;;;;;;;34.20;31.80;;;;;;;16.10;60.94;101081.06;5034107;28;20037;-78
2022/09/24 07:47:07;;;;;;;33.88;31.67;;;;;;;16.10;60.98;101081.06;5015134;28;20077;-77
2022/09/24 07:49:33;;;;;;;36.30;33.20;;;;;;;16.09;60.54;101084.06;5022733;28;20473;-78
2022/09/24 07:52:00;;;;;;;35.60;32.67;;;;;;;16.10;61.09;101085.69;5033527;28;20033;-78
2022/09/24 07:54:25;;;;;;;33.10;30.77;;;;;;;16.09;60.95;101086.78;5066127;28;20030;-78
2022/09/24 07:56:50;;;;;;;35.35;32.75;;;;;;;16.08;60.71;101085.97;5032348;28;20044;-79
2022/09/24 07:59:18;;;;;;;34.63;32.17;;;;;;;16.08;60.98;101088.69;5032350;28;20033;-77
2022/09/24 08:01:43;;;;;;;34.75;31.65;;;;;;;16.08;61.03;101083.25;5027085;28;20441;-77
2022/09/24 08:04:09;;;;;;;35.72;33.17;;;;;;;16.09;61.02;101089.50;5025795;28;20028;-79
2022/09/24 08:06:35;;;;;;;35.33;32.72;;;;;;;16.07;60.87;101089.75;5027320;28;20045;-80
2022/09/24 08:09:01;;;;;;;33.95;31.25;;;;;;;16.07;60.82;101095.22;5055907;28;20068;-79
2022/09/24 08:11:27;;;;;;;35.35;32.65;;;;;;;16.07;60.93;101087.03;5032976;28;20087;-78
2022/09/24 08:13:55;;;;;;;34.75;32.15;;;;;;;16.08;60.91;101093.34;5028081;28;20488;-78
2022/09/24 08:16:20;;;;;;;37.75;34.30;;;;;;;16.06;60.80;101088.13;5052365;28;20413;-78
2022/09/24 08:18:46;;;;;;;33.58;31.10;;;;;;;16.06;60.82;101096.31;5013457;28;20034;-79
2022/09/24 08:21:12;;;;;;;36.45;33.78;;;;;;;16.07;60.75;101099.84;5020213;28;20056;-77
2022/09/24 08:23:46;;;;;;;35.63;33.03;;;;;;;16.05;61.20;101094.69;5022501;28;20041;-78
2022/09/24 08:26:12;;;;;;;36.13;33.20;;;;;;;16.06;60.82;101100.94;5032293;28;20045;-78
2022/09/24 08:28:40;;;;;;;33.38;31.00;;;;;;;16.07;60.96;101102.56;5036088;28;20087;-78
2022/09/24 08:31:10;;;;;;;34.42;31.83;;;;;;;16.05;61.00;101100.13;5043588;28;20091;-79
2022/09/24 08:33:36;;;;;;;34.47;31.95;;;;;;;16.06;61.00;101104.50;5032200;28;20026;-78
2022/09/24 08:36:05;;;;;;;34.45;31.98;;;;;;;16.05;61.16;101108.31;5032632;28;20040;-78
2022/09/24 08:38:30;;;;;;;37.78;34.63;;;;;;;16.06;61.09;101098.22;5031947;28;20030;-78
2022/09/24 08:41:20;;;;;;;33.10;30.70;;;;;;;16.04;60.88;101103.94;5031139;28;20041;-78
2022/09/24 08:43:51;;;;;;;35.70;32.65;;;;;;;16.06;61.23;101117.31;5032370;28;20705;-79
2022/09/24 08:49:16;;;;;;;35.97;33.03;;;;;;;16.05;61.36;101111.03;5020528;28;20040;-79
2022/09/24 08:52:02;;;;;;;34.20;31.85;;;;;;;16.04;60.76;101114.03;5019265;28;20393;-78
2022/09/24 08:54:29;;;;;;;38.15;34.83;;;;;;;16.05;61.18;101110.19;5012563;28;20051;-77
2022/09/24 08:56:56;;;;;;;36.75;33.60;;;;;;;16.04;61.12;101122.19;5018735;28;20505;-78
2022/09/24 08:59:37;;;;;;;36.75;33.83;;;;;;;16.03;61.20;101121.38;5034450;28;20025;-79
2022/09/24 09:02:12;;;;;;;37.97;34.60;;;;;;;16.04;61.59;101120.28;5010166;28;20038;-77
2022/09/24 09:04:59;;;;;;;38.17;34.35;;;;;;;16.02;61.31;101123.25;5033677;28;20078;-77
2022/09/24 09:07:31;;;;;;;37.35;34.17;;;;;;;16.03;61.31;101118.66;5032754;28;20392;-78
2022/09/24 09:10:03;;;;;;;38.20;35.28;;;;;;;16.03;61.47;101121.38;5044727;28;20112;-78
2022/09/24 09:12:47;;;;;;;34.65;32.08;;;;;;;16.03;61.49;101124.09;5021754;28;20139;-78
2022/09/24 09:15:20;;;;;;;36.25;33.55;;;;;;;16.03;61.42;101126.84;5028960;28;20044;-78
2022/09/24 09:17:53;;;;;;;35.50;32.67;;;;;;;16.02;61.08;101125.19;5029027;28;20030;-77
2022/09/24 09:20:26;;;;;;;34.63;31.95;;;;;;;16.02;61.40;101125.19;5055635;28;20037;-77
2022/09/24 09:22:52;;;;;;;33.25;30.90;;;;;;;16.03;61.41;101132.28;5010417;28;20112;-78
2022/09/24 09:25:22;;;;;;;34.22;31.52;;;;;;;16.04;61.70;101135.81;5042236;28;20530;-77
2022/09/24 09:27:57;;;;;;;34.33;31.38;;;;;;;16.04;61.44;101139.34;5017119;28;20442;-77
2022/09/24 09:30:23;;;;;;;36.83;34.13;;;;;;;16.03;61.58;101140.47;5024498;28;20183;-78
2022/09/24 09:33:01;;;;;;;35.58;32.67;;;;;;;16.05;61.81;101134.72;5021345;28;20046;-79
2022/09/24 09:35:32;;;;;;;38.17;35.17;;;;;;;16.04;61.75;101136.63;5026091;28;20046;-78
2022/09/24 09:38:06;;;;;;;37.20;34.00;;;;;;;16.04;61.75;101141.28;5026719;28;20026;-79
2022/09/24 09:40:42;;;;;;;35.15;32.58;;;;;;;16.04;61.74;101142.09;5026023;28;20543;-78
2022/09/24 09:43:13;;;;;;;36.92;33.88;;;;;;;16.05;61.85;101140.16;5026548;28;20033;-78
2022/09/24 09:46:03;;;;;;;35.67;32.85;;;;;;;16.04;61.89;101136.63;5059704;28;20069;-79
2022/09/24 09:48:42;;;;;;;35.60;32.88;;;;;;;16.04;61.87;101144.00;5033429;28;20039;-79
2022/09/24 09:51:12;;;;;;;;;;;;;;;16.04;61.43;101138.53;5036455;28;20033;-80
2022/09/24 09:53:38;;;;;;;35.42;32.42;;;;;;;16.04;61.54;101138.53;5023318;28;20024;-82
2022/09/24 09:56:06;;;;;;;36.55;33.63;;;;;;;16.04;61.45;101146.72;5019529;28;20045;-80
2022/09/24 09:58:34;;;;;;;34.65;32.13;;;;;;;16.04;61.70;101144.81;5020283;28;20044;-79
2022/09/24 10:01:10;;;;;;;36.58;33.85;;;;;;;16.05;61.92;101148.34;5010299;28;20117;-78
2022/09/24 10:03:51;;;;;;;35.42;32.50;;;;;;;16.05;62.19;101143.75;5026602;28;20469;-80
2022/09/24 10:06:28;;;;;;;38.33;35.33;;;;;;;16.06;61.79;101144.56;5027767;28;20406;-79
2022/09/24 10:09:06;;;;;;;35.35;32.53;;;;;;;16.05;62.10;101146.47;5024749;28;20446;-80
2022/09/24 10:11:31;;;;;;;36.20;33.35;;;;;;;16.05;61.98;101146.47;5017626;28;20029;-83
2022/09/24 10:14:10;;;;;;;37.53;34.47;;;;;;;16.07;62.16;101143.44;5028276;28;20103;-82
2022/09/24 10:16:39;;;;;;;;;;;;;;;16.06;61.83;101139.91;5028048;28;20099;-81
2022/09/24 10:19:15;;;;;;;37.75;34.47;;;;;;;16.05;61.91;101138.28;5022803;28;19943;-80
2022/09/24 10:21:41;;;;;;;34.88;32.28;;;;;;;16.05;61.61;101138.28;5023571;28;20103;-80
2022/09/24 10:24:15;;;;;;;33.22;30.75;;;;;;;16.06;62.21;101131.75;5008709;28;20030;-81
2022/09/24 10:26:43;;;;;;;36.35;33.67;;;;;;;16.08;61.99;101145.09;5030885;28;20080;-80
2022/09/24 10:32:16;;;;;;;36.75;33.85;;;;;;;16.08;62.12;101135.03;5030286;28;20052;-82
2022/09/24 10:34:55;;;;;;;37.53;34.55;;;;;;;16.09;62.05;101142.09;5019396;28;20053;-82
2022/09/24 10:37:20;;;;;;;38.78;35.47;;;;;;;16.11;62.26;101142.66;5050649;28;20112;-74
2022/09/24 10:39:59;;;;;;;38.45;35.40;;;;;;;16.15;62.81;101138.31;5024838;28;20164;-72
2022/09/24 10:42:28;;;;;;;44.22;34.75;;;;;;;16.17;62.76;101140.75;5025015;28;20045;-83
2022/09/24 10:44:57;;;;;;;36.95;33.88;;;;;;;16.19;63.12;101144.84;5029142;28;20115;-77
2022/09/24 10:47:38;;;;;;;40.00;36.65;;;;;;;16.20;63.41;101143.75;5034810;28;20477;-73
2022/09/24 10:50:23;;;;;;;35.67;32.92;;;;;;;16.22;64.09;101152.47;5010393;28;20031;-79
2022/09/24 10:53:21;;;;;;;34.33;31.98;;;;;;;16.23;63.71;101150.56;5044454;28;20042;-83
2022/09/24 10:56:04;;;;;;;36.15;32.85;;;;;;;16.23;63.94;101145.94;5027198;28;20103;-80
2022/09/24 10:58:52;;;;;;;37.60;34.88;;;;;;;16.25;64.08;101151.09;5025621;28;20534;-76
2022/09/24 11:01:41;;;;;;;35.72;32.92;;;;;;;16.26;63.63;101149.22;5030781;28;20044;-76
2022/09/24 11:04:29;;;;;;;35.88;33.17;;;;;;;16.26;63.77;101158.22;5024426;28;20041;-83
2022/09/24 11:07:15;;;;;;;36.70;33.83;;;;;;;16.27;63.76;101162.56;5020614;28;20080;-76
2022/09/24 11:10:00;;;;;;;38.40;34.78;;;;;;;16.29;64.29;101157.66;5033969;28;20033;-77
2022/09/24 11:12:47;;;;;;;39.45;36.05;;;;;;;16.29;64.15;101160.38;5058881;28;20069;-74
2022/09/24 11:15:33;;;;;;;36.47;33.55;;;;;;;16.31;64.53;101154.69;5013373;28;20033;-75
2022/09/24 11:18:35;;;;;;;36.72;34.00;;;;;;;16.32;64.52;101154.38;5024960;28;20492;-74
2022/09/24 11:21:00;;;;;;;36.42;33.65;;;;;;;16.33;64.72;101155.19;5024258;28;20475;-76
2022/09/24 11:23:56;;;;;;;36.47;33.58;;;;;;;16.36;65.11;101158.22;5027336;28;20028;-75
2022/09/24 11:26:49;;;;;;;34.67;32.28;;;;;;;16.38;64.74;101157.97;5044524;28;20172;-77
2022/09/24 11:29:42;;;;;;;34.00;31.40;;;;;;;16.40;65.03;101161.22;5027544;28;20037;-78
2022/09/24 11:32:26;;;;;;;36.33;33.53;;;;;;;16.41;64.92;101162.88;5024768;28;20033;-78
2022/09/24 11:34:52;;;;;;;35.25;32.88;;;;;;;16.41;64.55;101158.22;5035284;28;20053;-79